sensor_id;sensor_type;location;lat;lon;timestamp;P1;durP1;ratioP1;P2;durP2;ratioP2
6505;SDS011;3286;49.858;8.768;2023-04-25T00:01:15;4.90;;;3.13;;
6505;SDS011;3286;49.858;8.768;2023-04-25T00:03:41;4.10;;;3.17;;
6505;SDS011;3286;49.858;8.768;2023-04-25T00:06:08;3.50;;;3.03;;
6505;SDS011;3286;49.858;8.768;2023-04-25T00:08:36;5.07;;;3.40;;
6505;SDS011;3286;49.858;8.768;2023-04-25T00:11:03;3.40;;;3.10;;
6505;SDS011;3286;49.858;8.768;2023-04-25T00:13:30;3.80;;;3.23;;
6505;SDS011;3286;49.858;8.768;2023-04-25T00:15:56;3.67;;;3.10;;
6505;SDS011;3286;49.858;8.768;2023-04-25T00:18:23;3.47;;;3.17;;
6505;SDS011;3286;49.858;8.768;2023-04-25T00:20:50;4.80;;;3.30;;
6505;SDS011;3286;49.858;8.768;2023-04-25T00:23:17;3.63;;;3.30;;
6505;SDS011;3286;49.858;8.768;2023-04-25T00:25:45;5.17;;;3.47;;
6505;SDS011;3286;49.858;8.768;2023-04-25T00:28:13;4.13;;;3.70;;
6505;SDS011;3286;49.858;8.768;2023-04-25T00:30:40;4.07;;;3.50;;
6505;SDS011;3286;49.858;8.768;2023-04-25T00:33:07;5.33;;;3.83;;
6505;SDS011;3286;49.858;8.768;2023-04-25T00:35:34;5.80;;;3.57;;
6505;SDS011;3286;49.858;8.768;2023-04-25T00:38:01;5.27;;;3.90;;
6505;SDS011;3286;49.858;8.768;2023-04-25T00:40:28;4.73;;;4.07;;
6505;SDS011;3286;49.858;8.768;2023-04-25T00:42:56;5.33;;;3.80;;
6505;SDS011;3286;49.858;8.768;2023-04-25T00:45:22;5.37;;;4.10;;
6505;SDS011;3286;49.858;8.768;2023-04-25T00:47:54;6.47;;;3.90;;
6505;SDS011;3286;49.858;8.768;2023-04-25T00:50:22;7.80;;;4.00;;
6505;SDS011;3286;49.858;8.768;2023-04-25T00:52:49;5.27;;;4.00;;
6505;SDS011;3286;49.858;8.768;2023-04-25T00:55:15;5.03;;;4.20;;
6505;SDS011;3286;49.858;8.768;2023-04-25T00:57:42;6.33;;;4.20;;
6505;SDS011;3286;49.858;8.768;2023-04-25T01:00:11;4.93;;;4.07;;
6505;SDS011;3286;49.858;8.768;2023-04-25T01:02:38;6.57;;;4.30;;
6505;SDS011;3286;49.858;8.768;2023-04-25T01:05:06;6.03;;;4.40;;
6505;SDS011;3286;49.858;8.768;2023-04-25T01:07:33;5.60;;;4.23;;
6505;SDS011;3286;49.858;8.768;2023-04-25T01:10:00;7.00;;;4.60;;
6505;SDS011;3286;49.858;8.768;2023-04-25T01:12:27;5.93;;;4.10;;
6505;SDS011;3286;49.858;8.768;2023-04-25T01:14:54;5.63;;;4.00;;
6505;SDS011;3286;49.858;8.768;2023-04-25T01:17:22;6.60;;;4.33;;
6505;SDS011;3286;49.858;8.768;2023-04-25T01:19:49;6.30;;;4.47;;
6505;SDS011;3286;49.858;8.768;2023-04-25T01:22:17;4.73;;;3.97;;
6505;SDS011;3286;49.858;8.768;2023-04-25T01:24:44;7.50;;;4.63;;
6505;SDS011;3286;49.858;8.768;2023-04-25T01:27:12;5.53;;;4.23;;
6505;SDS011;3286;49.858;8.768;2023-04-25T01:29:38;5.23;;;4.27;;
6505;SDS011;3286;49.858;8.768;2023-04-25T01:32:05;5.03;;;4.13;;
6505;SDS011;3286;49.858;8.768;2023-04-25T01:34:33;6.23;;;4.33;;
6505;SDS011;3286;49.858;8.768;2023-04-25T01:37:00;6.77;;;4.67;;
6505;SDS011;3286;49.858;8.768;2023-04-25T01:39:28;5.77;;;4.20;;
6505;SDS011;3286;49.858;8.768;2023-04-25T01:41:55;5.83;;;4.67;;
6505;SDS011;3286;49.858;8.768;2023-04-25T01:44:22;5.23;;;4.10;;
6505;SDS011;3286;49.858;8.768;2023-04-25T01:46:49;4.53;;;4.00;;
6505;SDS011;3286;49.858;8.768;2023-04-25T01:49:16;6.73;;;4.47;;
6505;SDS011;3286;49.858;8.768;2023-04-25T01:51:42;6.47;;;4.43;;
6505;SDS011;3286;49.858;8.768;2023-04-25T01:54:09;5.20;;;4.37;;
6505;SDS011;3286;49.858;8.768;2023-04-25T01:56:38;5.00;;;4.43;;
6505;SDS011;3286;49.858;8.768;2023-04-25T01:59:05;6.37;;;4.80;;
6505;SDS011;3286;49.858;8.768;2023-04-25T02:01:32;6.13;;;4.50;;
6505;SDS011;3286;49.858;8.768;2023-04-25T02:03:59;7.13;;;4.83;;
6505;SDS011;3286;49.858;8.768;2023-04-25T02:06:26;5.40;;;4.27;;
6505;SDS011;3286;49.858;8.768;2023-04-25T02:08:53;5.90;;;4.80;;
6505;SDS011;3286;49.858;8.768;2023-04-25T02:11:19;6.40;;;4.40;;
6505;SDS011;3286;49.858;8.768;2023-04-25T02:13:47;6.50;;;4.80;;
6505;SDS011;3286;49.858;8.768;2023-04-25T02:16:14;6.37;;;4.30;;
6505;SDS011;3286;49.858;8.768;2023-04-25T02:18:40;6.47;;;4.90;;
6505;SDS011;3286;49.858;8.768;2023-04-25T02:21:07;6.60;;;5.20;;
6505;SDS011;3286;49.858;8.768;2023-04-25T02:23:34;6.23;;;4.53;;
6505;SDS011;3286;49.858;8.768;2023-04-25T02:26:00;7.20;;;4.70;;
6505;SDS011;3286;49.858;8.768;2023-04-25T02:28:27;6.87;;;4.73;;
6505;SDS011;3286;49.858;8.768;2023-04-25T02:30:55;6.63;;;4.27;;
6505;SDS011;3286;49.858;8.768;2023-04-25T02:33:22;7.73;;;4.50;;
6505;SDS011;3286;49.858;8.768;2023-04-25T02:35:48;6.50;;;4.23;;
6505;SDS011;3286;49.858;8.768;2023-04-25T02:38:15;5.13;;;4.50;;
6505;SDS011;3286;49.858;8.768;2023-04-25T02:40:41;6.17;;;4.50;;
6505;SDS011;3286;49.858;8.768;2023-04-25T02:43:08;6.10;;;4.70;;
6505;SDS011;3286;49.858;8.768;2023-04-25T02:45:35;5.40;;;4.80;;
6505;SDS011;3286;49.858;8.768;2023-04-25T02:48:04;5.40;;;4.50;;
6505;SDS011;3286;49.858;8.768;2023-04-25T02:50:31;6.13;;;4.60;;
6505;SDS011;3286;49.858;8.768;2023-04-25T02:52:57;5.30;;;4.23;;
6505;SDS011;3286;49.858;8.768;2023-04-25T02:55:24;6.07;;;4.80;;
6505;SDS011;3286;49.858;8.768;2023-04-25T02:57:51;5.10;;;4.50;;
6505;SDS011;3286;49.858;8.768;2023-04-25T03:00:17;7.30;;;4.70;;
6505;SDS011;3286;49.858;8.768;2023-04-25T03:02:44;5.03;;;4.50;;
6505;SDS011;3286;49.858;8.768;2023-04-25T03:05:12;5.30;;;4.33;;
6505;SDS011;3286;49.858;8.768;2023-04-25T03:07:38;7.57;;;5.30;;
6505;SDS011;3286;49.858;8.768;2023-04-25T03:10:05;5.83;;;4.77;;
6505;SDS011;3286;49.858;8.768;2023-04-25T03:12:33;5.97;;;4.50;;
6505;SDS011;3286;49.858;8.768;2023-04-25T03:14:59;5.83;;;4.90;;
6505;SDS011;3286;49.858;8.768;2023-04-25T03:17:26;6.53;;;5.20;;
6505;SDS011;3286;49.858;8.768;2023-04-25T03:19:52;7.23;;;5.40;;
6505;SDS011;3286;49.858;8.768;2023-04-25T03:22:21;7.30;;;5.50;;
6505;SDS011;3286;49.858;8.768;2023-04-25T03:24:48;7.17;;;5.60;;
6505;SDS011;3286;49.858;8.768;2023-04-25T03:27:14;6.27;;;5.00;;
6505;SDS011;3286;49.858;8.768;2023-04-25T03:29:41;6.73;;;5.40;;
6505;SDS011;3286;49.858;8.768;2023-04-25T03:32:08;6.63;;;5.57;;
6505;SDS011;3286;49.858;8.768;2023-04-25T03:34:34;6.97;;;5.70;;
6505;SDS011;3286;49.858;8.768;2023-04-25T03:37:01;7.50;;;6.20;;
6505;SDS011;3286;49.858;8.768;2023-04-25T03:39:29;8.43;;;6.27;;
6505;SDS011;3286;49.858;8.768;2023-04-25T03:41:56;9.17;;;6.23;;
6505;SDS011;3286;49.858;8.768;2023-04-25T03:44:22;11.00;;;5.97;;
6505;SDS011;3286;49.858;8.768;2023-04-25T03:46:49;11.63;;;6.87;;
6505;SDS011;3286;49.858;8.768;2023-04-25T03:49:16;7.67;;;6.30;;
6505;SDS011;3286;49.858;8.768;2023-04-25T03:51:42;8.67;;;6.20;;
6505;SDS011;3286;49.858;8.768;2023-04-25T03:54:09;8.13;;;5.90;;
6505;SDS011;3286;49.858;8.768;2023-04-25T03:56:37;7.50;;;5.70;;
6505;SDS011;3286;49.858;8.768;2023-04-25T03:59:03;7.77;;;6.20;;
6505;SDS011;3286;49.858;8.768;2023-04-25T04:01:30;8.10;;;6.20;;
6505;SDS011;3286;49.858;8.768;2023-04-25T04:03:57;8.57;;;5.87;;
6505;SDS011;3286;49.858;8.768;2023-04-25T04:06:24;7.50;;;5.93;;
6505;SDS011;3286;49.858;8.768;2023-04-25T04:08:50;6.30;;;5.60;;
6505;SDS011;3286;49.858;8.768;2023-04-25T04:11:17;7.90;;;6.33;;
6505;SDS011;3286;49.858;8.768;2023-04-25T04:13:45;7.90;;;6.00;;
6505;SDS011;3286;49.858;8.768;2023-04-25T04:16:11;16.77;;;7.80;;
6505;SDS011;3286;49.858;8.768;2023-04-25T04:18:38;8.73;;;6.17;;
6505;SDS011;3286;49.858;8.768;2023-04-25T04:21:05;8.57;;;6.50;;
6505;SDS011;3286;49.858;8.768;2023-04-25T04:23:31;7.83;;;6.30;;
6505;SDS011;3286;49.858;8.768;2023-04-25T04:25:58;11.13;;;6.27;;
6505;SDS011;3286;49.858;8.768;2023-04-25T04:28:25;9.80;;;6.47;;
6505;SDS011;3286;49.858;8.768;2023-04-25T04:30:54;11.67;;;6.40;;
6505;SDS011;3286;49.858;8.768;2023-04-25T04:33:21;9.07;;;6.10;;
6505;SDS011;3286;49.858;8.768;2023-04-25T04:35:48;8.33;;;5.70;;
6505;SDS011;3286;49.858;8.768;2023-04-25T04:38:17;8.50;;;5.80;;
6505;SDS011;3286;49.858;8.768;2023-04-25T04:40:44;10.47;;;6.30;;
6505;SDS011;3286;49.858;8.768;2023-04-25T04:43:11;10.00;;;6.57;;
6505;SDS011;3286;49.858;8.768;2023-04-25T04:45:38;6.97;;;5.73;;
6505;SDS011;3286;49.858;8.768;2023-04-25T04:48:06;9.70;;;6.43;;
6505;SDS011;3286;49.858;8.768;2023-04-25T04:50:33;10.03;;;6.57;;
6505;SDS011;3286;49.858;8.768;2023-04-25T04:53:01;9.37;;;5.93;;
6505;SDS011;3286;49.858;8.768;2023-04-25T04:55:28;9.43;;;6.20;;
6505;SDS011;3286;49.858;8.768;2023-04-25T04:57:54;9.87;;;6.17;;
6505;SDS011;3286;49.858;8.768;2023-04-25T05:00:21;9.70;;;6.37;;
6505;SDS011;3286;49.858;8.768;2023-04-25T05:02:47;7.13;;;5.83;;
6505;SDS011;3286;49.858;8.768;2023-04-25T05:05:15;9.63;;;6.27;;
6505;SDS011;3286;49.858;8.768;2023-04-25T05:07:42;10.20;;;6.73;;
6505;SDS011;3286;49.858;8.768;2023-04-25T05:10:10;10.40;;;6.00;;
6505;SDS011;3286;49.858;8.768;2023-04-25T05:12:37;9.10;;;6.10;;
6505;SDS011;3286;49.858;8.768;2023-04-25T05:15:04;10.23;;;6.50;;
6505;SDS011;3286;49.858;8.768;2023-04-25T05:17:31;9.93;;;5.90;;
6505;SDS011;3286;49.858;8.768;2023-04-25T05:19:58;10.73;;;5.70;;
6505;SDS011;3286;49.858;8.768;2023-04-25T05:22:26;10.83;;;5.80;;
6505;SDS011;3286;49.858;8.768;2023-04-25T05:24:52;8.83;;;5.93;;
6505;SDS011;3286;49.858;8.768;2023-04-25T05:27:19;9.63;;;5.50;;
6505;SDS011;3286;49.858;8.768;2023-04-25T05:29:46;10.53;;;5.57;;
6505;SDS011;3286;49.858;8.768;2023-04-25T05:32:13;10.33;;;5.27;;
6505;SDS011;3286;49.858;8.768;2023-04-25T05:34:39;15.90;;;6.10;;
6505;SDS011;3286;49.858;8.768;2023-04-25T05:37:06;12.60;;;5.43;;
6505;SDS011;3286;49.858;8.768;2023-04-25T05:39:34;8.03;;;4.97;;
6505;SDS011;3286;49.858;8.768;2023-04-25T05:42:01;8.97;;;5.47;;
6505;SDS011;3286;49.858;8.768;2023-04-25T05:44:28;10.23;;;5.73;;
6505;SDS011;3286;49.858;8.768;2023-04-25T05:46:55;13.03;;;5.83;;
6505;SDS011;3286;49.858;8.768;2023-04-25T05:49:22;12.67;;;5.60;;
6505;SDS011;3286;49.858;8.768;2023-04-25T05:51:48;10.63;;;5.80;;
6505;SDS011;3286;49.858;8.768;2023-04-25T05:54:15;13.83;;;5.60;;
6505;SDS011;3286;49.858;8.768;2023-04-25T05:56:43;17.50;;;5.27;;
6505;SDS011;3286;49.858;8.768;2023-04-25T05:59:09;10.83;;;5.60;;
6505;SDS011;3286;49.858;8.768;2023-04-25T06:01:36;12.40;;;5.63;;
6505;SDS011;3286;49.858;8.768;2023-04-25T06:04:03;12.40;;;5.23;;
6505;SDS011;3286;49.858;8.768;2023-04-25T06:06:30;11.77;;;5.40;;
6505;SDS011;3286;49.858;8.768;2023-04-25T06:08:56;16.30;;;5.90;;
6505;SDS011;3286;49.858;8.768;2023-04-25T06:11:23;13.97;;;5.67;;
6505;SDS011;3286;49.858;8.768;2023-04-25T06:13:51;10.87;;;5.83;;
6505;SDS011;3286;49.858;8.768;2023-04-25T06:16:17;12.33;;;6.30;;
6505;SDS011;3286;49.858;8.768;2023-04-25T06:18:44;12.30;;;6.00;;
6505;SDS011;3286;49.858;8.768;2023-04-25T06:21:11;10.47;;;5.80;;
6505;SDS011;3286;49.858;8.768;2023-04-25T06:23:37;15.50;;;6.63;;
6505;SDS011;3286;49.858;8.768;2023-04-25T06:26:04;14.20;;;5.63;;
6505;SDS011;3286;49.858;8.768;2023-04-25T06:28:30;16.23;;;5.93;;
6505;SDS011;3286;49.858;8.768;2023-04-25T06:30:58;11.20;;;5.47;;
6505;SDS011;3286;49.858;8.768;2023-04-25T06:33:25;14.03;;;6.10;;
6505;SDS011;3286;49.858;8.768;2023-04-25T06:35:52;10.93;;;5.87;;
6505;SDS011;3286;49.858;8.768;2023-04-25T06:38:18;11.93;;;5.90;;
6505;SDS011;3286;49.858;8.768;2023-04-25T06:40:45;10.30;;;5.43;;
6505;SDS011;3286;49.858;8.768;2023-04-25T06:43:12;11.30;;;6.07;;
6505;SDS011;3286;49.858;8.768;2023-04-25T06:45:38;10.73;;;5.63;;
6505;SDS011;3286;49.858;8.768;2023-04-25T06:48:06;8.97;;;5.40;;
6505;SDS011;3286;49.858;8.768;2023-04-25T06:50:33;12.37;;;5.40;;
6505;SDS011;3286;49.858;8.768;2023-04-25T06:53:00;12.00;;;5.70;;
6505;SDS011;3286;49.858;8.768;2023-04-25T06:55:27;11.27;;;5.70;;
6505;SDS011;3286;49.858;8.768;2023-04-25T06:57:54;12.73;;;5.77;;
6505;SDS011;3286;49.858;8.768;2023-04-25T07:00:21;12.30;;;6.13;;
6505;SDS011;3286;49.858;8.768;2023-04-25T07:02:47;12.50;;;5.47;;
6505;SDS011;3286;49.858;8.768;2023-04-25T07:05:15;12.40;;;5.60;;
6505;SDS011;3286;49.858;8.768;2023-04-25T07:07:42;11.00;;;5.57;;
6505;SDS011;3286;49.858;8.768;2023-04-25T07:10:08;16.97;;;5.80;;
6505;SDS011;3286;49.858;8.768;2023-04-25T07:12:35;10.20;;;5.20;;
6505;SDS011;3286;49.858;8.768;2023-04-25T07:15:02;12.03;;;5.90;;
6505;SDS011;3286;49.858;8.768;2023-04-25T07:17:31;11.67;;;5.13;;
6505;SDS011;3286;49.858;8.768;2023-04-25T07:19:59;10.00;;;5.43;;
6505;SDS011;3286;49.858;8.768;2023-04-25T07:22:27;10.37;;;5.33;;
6505;SDS011;3286;49.858;8.768;2023-04-25T07:24:53;9.67;;;4.60;;
6505;SDS011;3286;49.858;8.768;2023-04-25T07:27:21;10.87;;;5.63;;
6505;SDS011;3286;49.858;8.768;2023-04-25T07:29:47;7.77;;;4.87;;
6505;SDS011;3286;49.858;8.768;2023-04-25T07:32:14;10.33;;;4.70;;
6505;SDS011;3286;49.858;8.768;2023-04-25T07:34:41;9.03;;;5.13;;
6505;SDS011;3286;49.858;8.768;2023-04-25T07:37:07;7.97;;;4.57;;
6505;SDS011;3286;49.858;8.768;2023-04-25T07:39:35;9.63;;;5.10;;
6505;SDS011;3286;49.858;8.768;2023-04-25T07:42:02;12.20;;;4.83;;
6505;SDS011;3286;49.858;8.768;2023-04-25T07:44:31;10.20;;;4.33;;
6505;SDS011;3286;49.858;8.768;2023-04-25T07:47:03;11.43;;;4.60;;
6505;SDS011;3286;49.858;8.768;2023-04-25T07:49:30;10.30;;;4.30;;
6505;SDS011;3286;49.858;8.768;2023-04-25T07:51:57;13.07;;;4.20;;
6505;SDS011;3286;49.858;8.768;2023-04-25T07:54:24;7.13;;;3.80;;
6505;SDS011;3286;49.858;8.768;2023-04-25T07:56:52;7.43;;;4.17;;
6505;SDS011;3286;49.858;8.768;2023-04-25T07:59:18;9.50;;;3.73;;
6505;SDS011;3286;49.858;8.768;2023-04-25T08:01:45;10.80;;;3.93;;
6505;SDS011;3286;49.858;8.768;2023-04-25T08:04:12;13.27;;;3.83;;
6505;SDS011;3286;49.858;8.768;2023-04-25T08:06:38;5.30;;;3.60;;
6505;SDS011;3286;49.858;8.768;2023-04-25T08:09:05;8.00;;;3.80;;
6505;SDS011;3286;49.858;8.768;2023-04-25T08:11:33;6.67;;;3.37;;
6505;SDS011;3286;49.858;8.768;2023-04-25T08:14:01;8.27;;;3.70;;
6505;SDS011;3286;49.858;8.768;2023-04-25T08:16:28;9.73;;;3.93;;
6505;SDS011;3286;49.858;8.768;2023-04-25T08:18:54;9.53;;;3.23;;
6505;SDS011;3286;49.858;8.768;2023-04-25T08:21:21;6.00;;;3.30;;
6505;SDS011;3286;49.858;8.768;2023-04-25T08:23:48;6.70;;;3.23;;
6505;SDS011;3286;49.858;8.768;2023-04-25T08:26:15;7.73;;;2.93;;
6505;SDS011;3286;49.858;8.768;2023-04-25T08:28:41;5.50;;;3.00;;
6505;SDS011;3286;49.858;8.768;2023-04-25T08:31:09;5.13;;;2.40;;
6505;SDS011;3286;49.858;8.768;2023-04-25T08:33:36;4.33;;;2.73;;
6505;SDS011;3286;49.858;8.768;2023-04-25T08:36:03;4.97;;;2.70;;
6505;SDS011;3286;49.858;8.768;2023-04-25T08:38:30;5.80;;;2.63;;
6505;SDS011;3286;49.858;8.768;2023-04-25T08:40:57;7.93;;;3.00;;
6505;SDS011;3286;49.858;8.768;2023-04-25T08:43:26;4.37;;;2.57;;
6505;SDS011;3286;49.858;8.768;2023-04-25T08:45:56;5.17;;;2.73;;
6505;SDS011;3286;49.858;8.768;2023-04-25T08:48:26;5.17;;;2.57;;
6505;SDS011;3286;49.858;8.768;2023-04-25T08:50:54;7.90;;;2.70;;
6505;SDS011;3286;49.858;8.768;2023-04-25T08:53:22;6.10;;;2.97;;
6505;SDS011;3286;49.858;8.768;2023-04-25T08:55:52;3.67;;;2.40;;
6505;SDS011;3286;49.858;8.768;2023-04-25T08:58:20;5.10;;;2.40;;
6505;SDS011;3286;49.858;8.768;2023-04-25T09:00:48;4.27;;;2.47;;
6505;SDS011;3286;49.858;8.768;2023-04-25T09:03:15;7.47;;;2.50;;
6505;SDS011;3286;49.858;8.768;2023-04-25T09:05:43;4.70;;;2.20;;
6505;SDS011;3286;49.858;8.768;2023-04-25T09:08:09;5.47;;;2.03;;
6505;SDS011;3286;49.858;8.768;2023-04-25T09:10:36;6.83;;;2.87;;
6505;SDS011;3286;49.858;8.768;2023-04-25T09:13:04;7.90;;;2.27;;
6505;SDS011;3286;49.858;8.768;2023-04-25T09:15:34;5.60;;;3.17;;
6505;SDS011;3286;49.858;8.768;2023-04-25T09:18:13;9.27;;;2.07;;
6505;SDS011;3286;49.858;8.768;2023-04-25T09:20:41;4.97;;;2.47;;
6505;SDS011;3286;49.858;8.768;2023-04-25T09:23:09;4.03;;;1.73;;
6505;SDS011;3286;49.858;8.768;2023-04-25T09:25:36;6.60;;;2.10;;
6505;SDS011;3286;49.858;8.768;2023-04-25T09:28:04;3.80;;;2.20;;
6505;SDS011;3286;49.858;8.768;2023-04-25T09:30:32;4.40;;;1.93;;
6505;SDS011;3286;49.858;8.768;2023-04-25T09:33:03;5.23;;;2.13;;
6505;SDS011;3286;49.858;8.768;2023-04-25T09:35:35;4.20;;;2.57;;
6505;SDS011;3286;49.858;8.768;2023-04-25T09:38:07;3.63;;;2.53;;
6505;SDS011;3286;49.858;8.768;2023-04-25T09:40:38;5.17;;;2.73;;
6505;SDS011;3286;49.858;8.768;2023-04-25T09:43:08;3.77;;;2.03;;
6505;SDS011;3286;49.858;8.768;2023-04-25T09:45:40;4.67;;;2.40;;
6505;SDS011;3286;49.858;8.768;2023-04-25T09:48:11;3.93;;;2.17;;
6505;SDS011;3286;49.858;8.768;2023-04-25T09:50:38;4.03;;;2.33;;
6505;SDS011;3286;49.858;8.768;2023-04-25T09:53:05;5.77;;;2.40;;
6505;SDS011;3286;49.858;8.768;2023-04-25T09:55:34;4.43;;;2.07;;
6505;SDS011;3286;49.858;8.768;2023-04-25T09:58:05;6.00;;;2.27;;
6505;SDS011;3286;49.858;8.768;2023-04-25T10:00:32;3.77;;;2.20;;
6505;SDS011;3286;49.858;8.768;2023-04-25T10:03:00;4.30;;;2.07;;
6505;SDS011;3286;49.858;8.768;2023-04-25T10:05:28;4.13;;;2.33;;
6505;SDS011;3286;49.858;8.768;2023-04-25T10:07:58;5.67;;;2.43;;
6505;SDS011;3286;49.858;8.768;2023-04-25T10:10:26;4.07;;;2.20;;
6505;SDS011;3286;49.858;8.768;2023-04-25T10:12:55;3.00;;;2.10;;
6505;SDS011;3286;49.858;8.768;2023-04-25T10:15:22;6.43;;;2.67;;
6505;SDS011;3286;49.858;8.768;2023-04-25T10:17:49;5.53;;;2.60;;
6505;SDS011;3286;49.858;8.768;2023-04-25T10:20:17;4.77;;;2.60;;
6505;SDS011;3286;49.858;8.768;2023-04-25T10:22:44;4.20;;;1.80;;
6505;SDS011;3286;49.858;8.768;2023-04-25T10:25:13;3.87;;;2.00;;
6505;SDS011;3286;49.858;8.768;2023-04-25T10:27:40;3.87;;;2.03;;
6505;SDS011;3286;49.858;8.768;2023-04-25T10:30:09;3.57;;;2.13;;
6505;SDS011;3286;49.858;8.768;2023-04-25T10:32:41;3.83;;;2.17;;
6505;SDS011;3286;49.858;8.768;2023-04-25T10:35:12;3.20;;;2.00;;
6505;SDS011;3286;49.858;8.768;2023-04-25T10:40:25;3.33;;;2.10;;
6505;SDS011;3286;49.858;8.768;2023-04-25T10:42:52;5.53;;;2.50;;
6505;SDS011;3286;49.858;8.768;2023-04-25T10:45:21;4.80;;;2.23;;
6505;SDS011;3286;49.858;8.768;2023-04-25T10:47:48;5.80;;;2.43;;
6505;SDS011;3286;49.858;8.768;2023-04-25T10:50:14;7.33;;;2.70;;
6505;SDS011;3286;49.858;8.768;2023-04-25T10:52:41;4.73;;;3.03;;
6505;SDS011;3286;49.858;8.768;2023-04-25T10:55:09;6.87;;;2.70;;
6505;SDS011;3286;49.858;8.768;2023-04-25T10:57:36;4.47;;;2.87;;
6505;SDS011;3286;49.858;8.768;2023-04-25T11:00:05;5.23;;;2.67;;
6505;SDS011;3286;49.858;8.768;2023-04-25T11:02:38;8.27;;;3.20;;
6505;SDS011;3286;49.858;8.768;2023-04-25T11:05:08;4.47;;;2.60;;
6505;SDS011;3286;49.858;8.768;2023-04-25T11:07:37;3.67;;;2.80;;
6505;SDS011;3286;49.858;8.768;2023-04-25T11:10:08;4.60;;;2.70;;
6505;SDS011;3286;49.858;8.768;2023-04-25T11:12:35;7.30;;;3.27;;
6505;SDS011;3286;49.858;8.768;2023-04-25T11:15:02;4.40;;;2.80;;
6505;SDS011;3286;49.858;8.768;2023-04-25T11:17:29;4.13;;;2.97;;
6505;SDS011;3286;49.858;8.768;2023-04-25T11:19:57;2.93;;;2.63;;
6505;SDS011;3286;49.858;8.768;2023-04-25T11:22:25;8.47;;;3.07;;
6505;SDS011;3286;49.858;8.768;2023-04-25T11:24:53;6.87;;;2.90;;
6505;SDS011;3286;49.858;8.768;2023-04-25T11:27:19;4.10;;;2.83;;
6505;SDS011;3286;49.858;8.768;2023-04-25T11:29:47;4.83;;;3.37;;
6505;SDS011;3286;49.858;8.768;2023-04-25T11:32:14;5.87;;;3.10;;
6505;SDS011;3286;49.858;8.768;2023-04-25T11:34:43;4.07;;;2.90;;
6505;SDS011;3286;49.858;8.768;2023-04-25T11:37:12;4.00;;;2.67;;
6505;SDS011;3286;49.858;8.768;2023-04-25T11:39:42;5.27;;;2.80;;
6505;SDS011;3286;49.858;8.768;2023-04-25T11:42:11;4.00;;;2.50;;
6505;SDS011;3286;49.858;8.768;2023-04-25T11:44:38;3.03;;;2.13;;
6505;SDS011;3286;49.858;8.768;2023-04-25T11:47:06;3.87;;;2.50;;
6505;SDS011;3286;49.858;8.768;2023-04-25T11:49:32;11.67;;;3.70;;
6505;SDS011;3286;49.858;8.768;2023-04-25T11:52:00;6.17;;;2.60;;
6505;SDS011;3286;49.858;8.768;2023-04-25T11:54:28;5.03;;;3.00;;
6505;SDS011;3286;49.858;8.768;2023-04-25T11:56:54;5.00;;;2.80;;
6505;SDS011;3286;49.858;8.768;2023-04-25T11:59:22;5.77;;;3.20;;
6505;SDS011;3286;49.858;8.768;2023-04-25T12:01:51;4.07;;;2.73;;
6505;SDS011;3286;49.858;8.768;2023-04-25T12:04:18;6.13;;;2.90;;
6505;SDS011;3286;49.858;8.768;2023-04-25T12:06:46;9.20;;;3.00;;
6505;SDS011;3286;49.858;8.768;2023-04-25T12:09:14;7.00;;;3.53;;
6505;SDS011;3286;49.858;8.768;2023-04-25T12:11:45;4.87;;;2.70;;
6505;SDS011;3286;49.858;8.768;2023-04-25T12:14:12;6.47;;;3.10;;
6505;SDS011;3286;49.858;8.768;2023-04-25T12:16:47;5.30;;;3.20;;
6505;SDS011;3286;49.858;8.768;2023-04-25T12:19:16;6.03;;;3.17;;
6505;SDS011;3286;49.858;8.768;2023-04-25T12:21:43;4.70;;;3.00;;
6505;SDS011;3286;49.858;8.768;2023-04-25T12:24:11;5.53;;;3.13;;
6505;SDS011;3286;49.858;8.768;2023-04-25T12:26:47;5.73;;;3.00;;
6505;SDS011;3286;49.858;8.768;2023-04-25T12:29:18;6.67;;;2.80;;
6505;SDS011;3286;49.858;8.768;2023-04-25T12:31:46;7.63;;;2.83;;
6505;SDS011;3286;49.858;8.768;2023-04-25T12:34:13;6.50;;;3.03;;
6505;SDS011;3286;49.858;8.768;2023-04-25T12:36:39;5.53;;;2.80;;
6505;SDS011;3286;49.858;8.768;2023-04-25T12:39:06;6.70;;;2.57;;
6505;SDS011;3286;49.858;8.768;2023-04-25T12:41:33;9.50;;;3.10;;
6505;SDS011;3286;49.858;8.768;2023-04-25T12:44:01;9.10;;;2.83;;
6505;SDS011;3286;49.858;8.768;2023-04-25T12:46:28;8.03;;;2.87;;
6505;SDS011;3286;49.858;8.768;2023-04-25T12:48:54;7.37;;;2.70;;
6505;SDS011;3286;49.858;8.768;2023-04-25T12:51:21;4.00;;;2.60;;
6505;SDS011;3286;49.858;8.768;2023-04-25T12:53:50;5.77;;;2.67;;
6505;SDS011;3286;49.858;8.768;2023-04-25T12:56:17;6.43;;;3.00;;
6505;SDS011;3286;49.858;8.768;2023-04-25T12:58:43;7.27;;;2.97;;
6505;SDS011;3286;49.858;8.768;2023-04-25T13:01:11;3.80;;;2.57;;
6505;SDS011;3286;49.858;8.768;2023-04-25T13:03:38;6.27;;;2.90;;
6505;SDS011;3286;49.858;8.768;2023-04-25T13:06:05;6.83;;;2.43;;
6505;SDS011;3286;49.858;8.768;2023-04-25T13:08:32;7.30;;;2.60;;
6505;SDS011;3286;49.858;8.768;2023-04-25T13:11:00;4.83;;;2.37;;
6505;SDS011;3286;49.858;8.768;2023-04-25T13:13:26;5.80;;;2.73;;
6505;SDS011;3286;49.858;8.768;2023-04-25T13:15:53;6.40;;;2.83;;
6505;SDS011;3286;49.858;8.768;2023-04-25T13:18:21;5.33;;;2.60;;
6505;SDS011;3286;49.858;8.768;2023-04-25T13:20:51;5.50;;;2.73;;
6505;SDS011;3286;49.858;8.768;2023-04-25T13:23:18;6.40;;;2.40;;
6505;SDS011;3286;49.858;8.768;2023-04-25T13:25:45;9.23;;;2.73;;
6505;SDS011;3286;49.858;8.768;2023-04-25T13:28:11;6.53;;;2.53;;
6505;SDS011;3286;49.858;8.768;2023-04-25T13:30:38;6.20;;;3.00;;
6505;SDS011;3286;49.858;8.768;2023-04-25T13:33:05;4.77;;;2.40;;
6505;SDS011;3286;49.858;8.768;2023-04-25T13:35:34;5.33;;;2.30;;
6505;SDS011;3286;49.858;8.768;2023-04-25T13:38:02;7.00;;;2.60;;
6505;SDS011;3286;49.858;8.768;2023-04-25T13:40:28;5.30;;;2.60;;
6505;SDS011;3286;49.858;8.768;2023-04-25T13:42:55;5.63;;;2.43;;
6505;SDS011;3286;49.858;8.768;2023-04-25T13:45:22;7.30;;;2.70;;
6505;SDS011;3286;49.858;8.768;2023-04-25T13:47:48;6.43;;;2.63;;
6505;SDS011;3286;49.858;8.768;2023-04-25T13:50:15;8.03;;;2.40;;
6505;SDS011;3286;49.858;8.768;2023-04-25T13:52:44;7.33;;;2.43;;
6505;SDS011;3286;49.858;8.768;2023-04-25T13:55:10;6.97;;;2.30;;
6505;SDS011;3286;49.858;8.768;2023-04-25T13:57:37;4.00;;;2.27;;
6505;SDS011;3286;49.858;8.768;2023-04-25T14:00:04;6.37;;;2.10;;
6505;SDS011;3286;49.858;8.768;2023-04-25T14:02:33;3.23;;;2.00;;
6505;SDS011;3286;49.858;8.768;2023-04-25T14:05:00;5.83;;;2.20;;
6505;SDS011;3286;49.858;8.768;2023-04-25T14:07:28;6.37;;;2.30;;
6505;SDS011;3286;49.858;8.768;2023-04-25T14:09:56;4.87;;;2.10;;
6505;SDS011;3286;49.858;8.768;2023-04-25T14:12:23;5.03;;;2.10;;
6505;SDS011;3286;49.858;8.768;2023-04-25T14:14:50;7.60;;;2.63;;
6505;SDS011;3286;49.858;8.768;2023-04-25T14:17:17;5.60;;;2.07;;
6505;SDS011;3286;49.858;8.768;2023-04-25T14:19:44;5.50;;;2.60;;
6505;SDS011;3286;49.858;8.768;2023-04-25T14:22:12;5.20;;;2.33;;
6505;SDS011;3286;49.858;8.768;2023-04-25T14:24:39;5.43;;;2.00;;
6505;SDS011;3286;49.858;8.768;2023-04-25T14:27:07;5.37;;;2.03;;
6505;SDS011;3286;49.858;8.768;2023-04-25T14:29:34;5.63;;;2.90;;
6505;SDS011;3286;49.858;8.768;2023-04-25T14:32:01;5.33;;;2.13;;
6505;SDS011;3286;49.858;8.768;2023-04-25T14:34:28;2.60;;;1.80;;
6505;SDS011;3286;49.858;8.768;2023-04-25T14:36:55;6.13;;;2.57;;
6505;SDS011;3286;49.858;8.768;2023-04-25T14:39:21;5.93;;;1.77;;
6505;SDS011;3286;49.858;8.768;2023-04-25T14:41:48;4.40;;;2.27;;
6505;SDS011;3286;49.858;8.768;2023-04-25T14:44:16;4.93;;;2.40;;
6505;SDS011;3286;49.858;8.768;2023-04-25T14:46:42;3.40;;;2.10;;
6505;SDS011;3286;49.858;8.768;2023-04-25T14:49:15;4.90;;;2.07;;
6505;SDS011;3286;49.858;8.768;2023-04-25T14:51:42;6.27;;;2.53;;
6505;SDS011;3286;49.858;8.768;2023-04-25T14:54:09;5.10;;;2.20;;
6505;SDS011;3286;49.858;8.768;2023-04-25T14:56:36;6.37;;;2.27;;
6505;SDS011;3286;49.858;8.768;2023-04-25T14:59:02;6.70;;;2.50;;
6505;SDS011;3286;49.858;8.768;2023-04-25T15:01:31;5.57;;;2.40;;
6505;SDS011;3286;49.858;8.768;2023-04-25T15:03:58;7.20;;;2.40;;
6505;SDS011;3286;49.858;8.768;2023-04-25T15:06:25;5.57;;;2.77;;
6505;SDS011;3286;49.858;8.768;2023-04-25T15:08:54;5.67;;;2.47;;
6505;SDS011;3286;49.858;8.768;2023-04-25T15:11:20;5.33;;;2.33;;
6505;SDS011;3286;49.858;8.768;2023-04-25T15:13:47;4.70;;;2.40;;
6505;SDS011;3286;49.858;8.768;2023-04-25T15:16:14;6.43;;;3.37;;